Time;durP1;ratioP1;P1;durP2;ratioP2;P2;SDS_P1;SDS_P2;PMS_P1;PMS_P2;Temp;Humidity;BMP_temperature;BMP_pressure;BME280_temperature;BME280_humidity;BME280_pressure;Samples;Min_cycle;Max_cycle;Signal;HPM_P1;HPM_P2
2021/03/27 00:00:57;;;;;;;7.45;4.53;;;14.00;80.00;;;;;;5073260;28;20222;-74
2021/03/27 00:03:29;;;;;;;5.90;5.03;;;13.90;81.70;;;;;;5072386;28;20233;-73
2021/03/27 00:06:02;;;;;;;8.80;5.95;;;13.90;82.20;;;;;;5072069;28;20626;-73
2021/03/27 00:08:40;;;;;;;6.78;5.68;;;13.80;83.30;;;;;;5072132;28;20668;-75
2021/03/27 00:11:13;;;;;;;7.55;5.70;;;13.70;84.40;;;;;;5072410;28;20199;-75
2021/03/27 00:13:50;;;;;;;8.40;5.30;;;13.70;85.60;;;;;;5072119;28;20673;-75
2021/03/27 00:16:23;;;;;;;7.10;4.93;;;13.60;86.80;;;;;;5071937;28;20263;-75
2021/03/27 00:18:59;;;;;;;5.95;4.93;;;13.50;88.10;;;;;;5072424;28;20255;-73
2021/03/27 00:21:32;;;;;;;7.70;5.05;;;13.50;89.10;;;;;;5072814;28;20222;-74
2021/03/27 00:24:02;;;;;;;10.00;4.20;;;13.50;90.00;;;;;;5072462;28;20245;-72
2021/03/27 00:26:31;;;;;;;4.85;4.05;;;13.50;89.70;;;;;;5072180;28;20695;-73
2021/03/27 00:29:03;;;;;;;4.43;4.00;;;13.40;89.90;;;;;;5075496;28;20228;-74
2021/03/27 00:31:34;;;;;;;6.97;4.53;;;13.40;90.30;;;;;;5075888;28;20648;-73
2021/03/27 00:34:05;;;;;;;4.95;4.13;;;13.40;90.50;;;;;;5075441;28;20327;-73
2021/03/27 00:36:36;;;;;;;6.82;4.43;;;13.40;90.80;;;;;;5075166;28;20289;-73
2021/03/27 00:39:07;;;;;;;4.88;4.03;;;13.40;91.60;;;;;;5075329;28;20665;-72
2021/03/27 00:41:49;;;;;;;4.43;3.88;;;13.40;92.10;;;;;;5075064;28;20223;-72
2021/03/27 00:44:17;;;;;;;9.23;4.40;;;13.30;92.50;;;;;;5075572;28;20226;-70
2021/03/27 00:46:46;;;;;;;7.20;4.13;;;13.30;93.00;;;;;;5074950;28;20206;-71
2021/03/27 00:49:16;;;;;;;4.68;3.70;;;13.30;93.50;;;;;;5075253;28;20546;-71
2021/03/27 00:51:46;;;;;;;5.35;4.20;;;13.20;93.90;;;;;;5075144;28;20211;-71
2021/03/27 00:54:23;;;;;;;6.80;4.72;;;13.20;94.20;;;;;;5074849;28;20700;-71
2021/03/27 00:56:59;;;;;;;4.97;3.88;;;13.10;94.50;;;;;;5075413;28;20183;-71
2021/03/27 00:59:27;;;;;;;4.40;3.78;;;13.10;94.80;;;;;;5075088;28;20243;-72
2021/03/27 01:01:57;;;;;;;5.95;4.00;;;13.10;94.90;;;;;;5074774;28;20271;-72
2021/03/27 01:04:27;;;;;;;6.30;4.05;;;13.10;95.00;;;;;;5074837;28;20223;-75
2021/03/27 01:06:56;;;;;;;4.57;3.53;;;13.10;95.10;;;;;;5075046;28;20205;-73
2021/03/27 01:09:27;;;;;;;4.72;3.80;;;13.10;94.90;;;;;;5075205;28;20207;-74
2021/03/27 01:11:59;;;;;;;5.13;3.50;;;13.10;95.40;;;;;;5074959;28;20191;-75
2021/03/27 01:14:28;;;;;;;5.85;4.50;;;13.00;95.80;;;;;;5074384;28;20368;-75
2021/03/27 01:16:58;;;;;;;7.05;4.20;;;13.00;96.60;;;;;;5074616;28;20297;-76
2021/03/27 01:19:28;;;;;;;4.88;3.50;;;12.90;97.00;;;;;;5075029;28;20294;-75
2021/03/27 01:21:57;;;;;;;3.72;3.20;;;12.80;97.60;;;;;;5074490;28;20325;-75
2021/03/27 01:24:27;;;;;;;4.57;3.65;;;12.80;98.20;;;;;;5074384;28;20654;-68
2021/03/27 01:27:05;;;;;;;6.15;3.72;;;12.70;98.80;;;;;;5074345;28;20199;-68
2021/03/27 01:29:36;;;;;;;6.45;3.90;;;12.60;99.50;;;;;;5074145;28;20665;-73
2021/03/27 01:32:12;;;;;;;4.60;3.80;;;12.50;99.90;;;;;;5074469;28;20213;-73
2021/03/27 01:34:43;;;;;;;5.22;3.60;;;12.50;99.90;;;;;;5074004;28;20588;-72
2021/03/27 01:37:19;;;;;;;5.43;3.97;;;12.50;99.90;;;;;;5073835;28;20340;-72
2021/03/27 01:39:52;;;;;;;4.20;3.50;;;12.50;99.90;;;;;;5074247;28;20252;-73
2021/03/27 01:42:33;;;;;;;6.65;4.28;;;12.50;99.90;;;;;;5074225;28;20314;-71
2021/03/27 01:45:30;;;;;;;5.00;3.67;;;12.50;99.90;;;;;;5073896;28;20309;-71
2021/03/27 01:48:08;;;;;;;6.18;3.65;;;12.40;99.90;;;;;;5073827;28;20736;-72
2021/03/27 01:50:40;;;;;;;4.95;4.15;;;12.30;99.90;;;;;;5073802;28;20199;-73
2021/03/27 01:53:22;;;;;;;7.00;4.20;;;12.30;99.90;;;;;;5074118;28;20319;-71
2021/03/27 01:56:01;;;;;;;4.95;3.95;;;12.30;99.90;;;;;;5073717;28;20252;-73
2021/03/27 01:58:32;;;;;;;5.32;4.13;;;12.20;99.90;;;;;;5073827;28;20572;-73
2021/03/27 02:01:05;;;;;;;5.60;4.20;;;12.10;99.90;;;;;;5074507;28;20233;-67
2021/03/27 02:03:40;;;;;;;8.10;4.22;;;12.00;99.90;;;;;;5075434;28;20595;-68
2021/03/27 02:06:11;;;;;;;6.45;4.65;;;11.90;99.90;;;;;;5075265;28;20633;-68
2021/03/27 02:08:48;;;;;;;6.07;4.10;;;11.90;99.90;;;;;;5075584;28;20542;-68
2021/03/27 02:11:22;;;;;;;5.85;4.25;;;11.90;99.90;;;;;;5075614;28;20203;-68
2021/03/27 02:13:55;;;;;;;7.68;4.38;;;11.90;99.90;;;;;;5074985;28;20649;-68
2021/03/27 02:16:30;;;;;;;6.40;3.83;;;11.80;99.90;;;;;;5075211;28;20191;-68
2021/03/27 02:19:13;;;;;;;5.75;3.92;;;11.80;99.90;;;;;;5075009;28;20206;-68
2021/03/27 02:21:50;;;;;;;5.38;4.18;;;11.80;99.90;;;;;;5074830;28;20692;-68
2021/03/27 02:24:39;;;;;;;5.28;4.28;;;11.80;99.90;;;;;;5075044;28;20307;-68
2021/03/27 02:27:13;;;;;;;8.15;4.60;;;11.70;99.90;;;;;;5052082;28;20546;-68
2021/03/27 02:30:00;;;;;;;5.20;4.50;;;11.70;99.90;;;;;;5075306;28;20309;-67
2021/03/27 02:32:43;;;;;;;6.00;4.20;;;11.60;99.90;;;;;;5075009;28;20301;-68
2021/03/27 02:35:16;;;;;;;7.55;4.18;;;11.60;99.90;;;;;;5075231;28;20225;-68
2021/03/27 02:37:56;;;;;;;5.97;4.20;;;11.60;99.90;;;;;;5074976;28;20199;-68
2021/03/27 02:40:26;;;;;;;5.40;4.05;;;11.50;99.90;;;;;;5075039;28;20241;-68
2021/03/27 02:42:58;;;;;;;5.70;4.20;;;11.50;99.90;;;;;;5074753;28;20607;-68
2021/03/27 02:45:30;;;;;;;6.63;4.47;;;11.40;99.90;;;;;;5074759;28;20226;-68
2021/03/27 02:48:08;;;;;;;5.72;4.40;;;11.40;99.90;;;;;;5074969;28;20297;-67
2021/03/27 02:50:56;;;;;;;6.15;4.22;;;11.40;99.90;;;;;;5074067;28;20293;-68
2021/03/27 02:53:26;;;;;;;5.13;4.13;;;11.30;99.90;;;;;;5074308;28;20247;-67
2021/03/27 02:56:12;;;;;;;5.40;3.65;;;11.30;99.90;;;;;;5074627;28;20309;-67
2021/03/27 02:58:49;;;;;;;6.72;3.92;;;11.30;99.90;;;;;;5074513;28;20259;-67
2021/03/27 03:01:23;;;;;;;5.13;4.07;;;11.30;99.90;;;;;;5074497;28;20248;-67
2021/03/27 03:03:55;;;;;;;4.93;3.42;;;11.20;99.90;;;;;;5074155;28;20207;-68
2021/03/27 03:06:29;;;;;;;5.22;4.20;;;11.20;99.90;;;;;;5074144;28;20187;-67
2021/03/27 03:09:08;;;;;;;6.85;4.00;;;11.20;99.90;;;;;;5073812;28;20301;-67
2021/03/27 03:11:47;;;;;;;6.13;4.35;;;11.10;99.90;;;;;;5074406;28;20198;-67
2021/03/27 03:14:19;;;;;;;6.45;4.07;;;11.10;99.90;;;;;;5073872;28;20223;-67
2021/03/27 03:16:59;;;;;;;4.53;3.20;;;11.10;99.90;;;;;;5074249;28;20203;-67
2021/03/27 03:19:33;;;;;;;6.40;3.42;;;11.00;99.90;;;;;;5074242;28;20235;-67
2021/03/27 03:22:06;;;;;;;5.15;4.00;;;10.90;99.90;;;;;;5074412;28;20226;-68
2021/03/27 03:24:38;;;;;;;5.22;3.80;;;10.90;99.90;;;;;;5073955;28;20356;-67
2021/03/27 03:27:14;;;;;;;4.60;3.22;;;11.00;99.90;;;;;;5073651;28;20248;-67
2021/03/27 03:29:56;;;;;;;4.85;3.60;;;11.00;99.90;;;;;;5074006;28;20647;-67
2021/03/27 03:32:38;;;;;;;5.78;3.50;;;11.00;99.90;;;;;;5074181;28;20336;-67
2021/03/27 03:35:16;;;;;;;3.60;3.00;;;11.00;99.90;;;;;;5073860;28;20226;-67
2021/03/27 03:37:59;;;;;;;4.22;3.30;;;11.00;99.90;;;;;;5073810;28;20297;-67
2021/03/27 03:40:35;;;;;;;4.40;2.63;;;11.10;99.90;;;;;;5073520;28;20625;-67
2021/03/27 03:43:12;;;;;;;3.35;2.75;;;11.10;99.90;;;;;;5073374;28;20263;-67
2021/03/27 03:45:47;;;;;;;4.47;2.92;;;11.10;99.90;;;;;;5073340;28;20692;-67
2021/03/27 03:48:29;;;;;;;4.15;2.80;;;11.20;99.90;;;;;;5073718;28;20288;-67
2021/03/27 03:51:00;;;;;;;3.75;3.20;;;11.20;99.90;;;;;;5074007;28;20285;-67
2021/03/27 03:53:37;;;;;;;2.42;2.05;;;11.10;99.90;;;;;;5073597;28;20203;-67
2021/03/27 03:56:14;;;;;;;2.30;1.58;;;10.70;99.90;;;;;;5073837;28;20187;-67
2021/03/27 03:59:01;;;;;;;0.55;0.55;;;10.60;99.90;;;;;;5073883;28;20777;-67
2021/03/27 04:01:46;;;;;;;0.93;0.85;;;10.30;99.90;;;;;;5076330;28;20269;-67
2021/03/27 04:04:18;;;;;;;1.33;0.60;;;10.10;99.90;;;;;;5077583;28;20570;-67
2021/03/27 04:06:46;;;;;;;0.68;0.60;;;9.90;99.90;;;;;;5077487;28;20203;-67
2021/03/27 04:09:20;;;;;;;1.80;1.45;;;9.90;99.90;;;;;;5077427;28;20198;-67
2021/03/27 04:11:53;;;;;;;1.20;0.90;;;9.90;99.90;;;;;;5077740;28;20207;-67
2021/03/27 04:14:48;;;;;;;1.83;0.90;;;9.90;99.90;;;;;;5077280;28;20231;-67
2021/03/27 04:17:20;;;;;;;2.50;1.23;;;9.90;99.90;;;;;;5077308;28;20202;-67
2021/03/27 04:19:52;;;;;;;2.40;1.80;;;9.90;99.90;;;;;;5077489;28;20649;-67
2021/03/27 04:22:25;;;;;;;1.13;0.75;;;9.90;99.90;;;;;;5077529;28;20263;-67
2021/03/27 04:25:06;;;;;;;0.60;0.60;;;9.90;99.90;;;;;;5077201;28;20226;-67
2021/03/27 04:27:37;;;;;;;0.95;0.73;;;9.80;99.90;;;;;;5076614;28;20294;-67
2021/03/27 04:30:14;;;;;;;0.93;0.70;;;9.70;99.90;;;;;;5077409;28;20653;-67
2021/03/27 04:32:47;;;;;;;0.98;0.50;;;9.70;99.90;;;;;;5077397;28;20202;-67
2021/03/27 04:35:29;;;;;;;0.60;0.60;;;9.60;99.90;;;;;;5076972;28;20233;-67
2021/03/27 04:38:10;;;;;;;0.75;0.50;;;9.60;99.90;;;;;;5076873;28;20202;-67
2021/03/27 04:40:42;;;;;;;0.75;0.70;;;9.60;99.90;;;;;;5077075;28;20202;-67
2021/03/27 04:43:16;;;;;;;0.60;0.50;;;9.50;99.90;;;;;;5077213;28;20202;-67
2021/03/27 04:45:47;;;;;;;0.80;0.50;;;9.60;99.90;;;;;;5076554;28;20238;-67
2021/03/27 04:48:20;;;;;;;1.30;0.93;;;9.60;99.90;;;;;;5076455;28;20728;-67
2021/03/27 04:51:02;;;;;;;1.25;1.15;;;9.50;99.90;;;;;;5076921;28;20560;-67
2021/03/27 04:53:32;;;;;;;0.70;0.70;;;9.50;99.90;;;;;;5076942;28;20232;-67
2021/03/27 04:56:08;;;;;;;0.45;0.45;;;9.50;99.90;;;;;;5076517;28;20318;-67
2021/03/27 04:58:41;;;;;;;0.70;0.70;;;9.50;99.90;;;;;;5076709;28;20202;-67
2021/03/27 05:01:23;;;;;;;0.60;0.57;;;9.40;99.90;;;;;;5076472;28;20222;-67
2021/03/27 05:03:58;;;;;;;0.70;0.70;;;9.40;99.90;;;;;;5076949;28;20212;-67
2021/03/27 05:06:37;;;;;;;0.40;0.35;;;9.40;99.90;;;;;;5076625;28;20202;-67
2021/03/27 05:09:22;;;;;;;0.70;0.70;;;9.30;99.90;;;;;;5076521;28;20206;-67
2021/03/27 05:11:54;;;;;;;0.80;0.70;;;9.20;99.90;;;;;;5076363;28;20194;-67
2021/03/27 05:14:57;;;;;;;0.73;0.70;;;9.10;99.90;;;;;;5075871;28;20228;-67
2021/03/27 05:17:47;;;;;;;0.70;0.70;;;9.20;99.90;;;;;;5076027;28;20248;-67
2021/03/27 05:20:18;;;;;;;0.98;0.98;;;9.20;99.90;;;;;;5076045;28;20665;-67
2021/03/27 05:22:56;;;;;;;0.60;0.60;;;9.10;99.90;;;;;;5076607;28;20254;-68
2021/03/27 05:25:32;;;;;;;0.63;0.47;;;9.10;99.90;;;;;;5076360;28;20227;-67
2021/03/27 05:28:17;;;;;;;0.50;0.50;;;9.10;99.90;;;;;;5076301;28;20202;-67
2021/03/27 05:30:56;;;;;;;0.60;0.60;;;9.00;99.90;;;;;;5054660;28;20214;-68
2021/03/27 05:33:29;;;;;;;0.70;0.60;;;9.00;99.90;;;;;;5076495;28;20203;-67
2021/03/27 05:36:14;;;;;;;0.70;0.70;;;8.80;99.90;;;;;;5076410;28;20226;-67
2021/03/27 05:38:47;;;;;;;0.60;0.60;;;8.70;99.90;;;;;;5076026;28;20294;-67
2021/03/27 05:41:33;;;;;;;0.50;0.50;;;8.70;99.90;;;;;;5076042;28;20229;-67
2021/03/27 05:44:31;;;;;;;0.50;0.50;;;8.70;99.90;;;;;;5075583;28;20223;-67
2021/03/27 05:47:48;;;;;;;0.70;0.70;;;8.80;99.90;;;;;;5075267;28;20577;-67
2021/03/27 05:50:41;;;;;;;0.82;0.50;;;8.90;99.90;;;;;;5075313;28;20203;-67
2021/03/27 05:53:56;;;;;;;0.73;0.63;;;8.90;99.90;;;;;;5075644;28;20256;-67
2021/03/27 05:56:54;;;;;;;0.75;0.60;;;8.90;99.90;;;;;;5075277;28;20275;-67
2021/03/27 05:59:41;;;;;;;0.70;0.50;;;8.90;99.90;;;;;;5075589;28;20242;-67
2021/03/27 06:02:22;;;;;;;0.60;0.60;;;8.90;99.90;;;;;;5075641;28;20227;-67
2021/03/27 06:05:16;;;;;;;1.20;0.50;;;9.10;99.90;;;;;;5075390;28;20612;-67
2021/03/27 06:08:16;;;;;;;0.73;0.73;;;9.00;99.90;;;;;;5075135;28;20211;-67
2021/03/27 06:10:58;;;;;;;0.70;0.70;;;8.80;99.90;;;;;;5075636;28;20217;-67
2021/03/27 06:13:50;;;;;;;0.65;0.40;;;8.90;99.90;;;;;;5074998;28;20720;-67
2021/03/27 06:16:37;;;;;;;0.57;0.50;;;9.00;99.90;;;;;;5075340;28;20187;-67
2021/03/27 06:19:44;;;;;;;4.00;0.50;;;9.10;99.90;;;;;;5075327;28;20209;-67
2021/03/27 06:22:30;;;;;;;4.28;2.63;;;9.00;99.90;;;;;;5074827;28;20226;-67
2021/03/27 06:25:33;;;;;;;3.65;0.82;;;9.10;99.90;;;;;;5074104;28;20268;-67
2021/03/27 06:28:43;;;;;;;0.63;0.63;;;9.20;99.90;;;;;;5074679;28;20213;-67
2021/03/27 06:31:26;;;;;;;2.80;0.60;;;9.30;99.90;;;;;;5074703;28;20184;-67
2021/03/27 06:34:33;;;;;;;0.82;0.60;;;9.10;99.90;;;;;;5074603;28;20275;-67
2021/03/27 06:37:23;;;;;;;0.38;0.38;;;8.80;99.90;;;;;;5074570;28;20191;-67
2021/03/27 06:40:17;;;;;;;0.93;0.65;;;8.80;99.90;;;;;;5074971;28;20203;-67
2021/03/27 06:43:07;;;;;;;0.98;0.70;;;8.90;99.90;;;;;;5074344;28;20222;-67
2021/03/27 06:46:01;;;;;;;0.95;0.65;;;8.90;99.90;;;;;;5112069;27;21246;-67
2021/03/27 06:49:13;;;;;;;0.88;0.70;;;8.60;99.90;;;;;;5111571;28;20208;-67
2021/03/27 06:52:20;;;;;;;0.50;0.50;;;8.50;99.90;;;;;;5101321;28;20201;-67
2021/03/27 06:55:10;;;;;;;0.70;0.70;;;8.50;99.90;;;;;;5048598;28;20231;-67
2021/03/27 06:58:13;;;;;;;0.90;0.85;;;8.40;99.90;;;;;;5111338;28;20288;-67
2021/03/27 07:00:57;;;;;;;2.75;0.80;;;8.40;99.90;;;;;;5111754;28;20205;-67
2021/03/27 07:04:07;;;;;;;1.05;0.68;;;8.40;99.90;;;;;;5111182;28;20212;-67
2021/03/27 07:07:10;;;;;;;3.40;0.80;;;8.50;99.90;;;;;;5111570;28;20217;-67
2021/03/27 07:10:15;;;;;;;0.77;0.77;;;8.40;99.90;;;;;;5111062;28;20201;-67
2021/03/27 07:13:19;;;;;;;1.27;0.65;;;8.50;99.90;;;;;;5079832;28;20295;-67
2021/03/27 07:16:04;;;;;;;1.27;0.63;;;8.60;99.00;;;;;;5111214;28;20563;-67
2021/03/27 07:19:00;;;;;;;0.80;0.65;;;8.70;98.10;;;;;;5111306;28;20209;-67
2021/03/27 07:21:53;;;;;;;2.35;0.60;;;8.80;97.10;;;;;;5110806;28;20244;-67
2021/03/27 07:24:59;;;;;;;1.27;0.75;;;8.80;96.00;;;;;;5087193;28;20226;-67
2021/03/27 07:27:55;;;;;;;1.15;0.40;;;8.80;95.20;;;;;;5110843;28;20280;-67
2021/03/27 07:31:13;;;;;;;0.55;0.50;;;8.90;95.40;;;;;;5081619;28;20201;-67
2021/03/27 07:33:51;;;;;;;0.77;0.60;;;9.00;94.30;;;;;;5111048;28;20226;-67
2021/03/27 07:36:57;;;;;;;0.70;0.50;;;9.00;95.20;;;;;;5111294;28;20319;-67
2021/03/27 07:39:51;;;;;;;0.90;0.50;;;9.00;93.80;;;;;;5110607;28;20208;-67
2021/03/27 07:42:42;;;;;;;0.70;0.60;;;8.70;94.10;;;;;;5110990;28;20591;-67
2021/03/27 07:45:36;;;;;;;0.85;0.60;;;8.60;94.10;;;;;;5110294;28;20621;-67
2021/03/27 07:48:24;;;;;;;0.55;0.55;;;8.60;93.70;;;;;;5108124;28;20216;-67
2021/03/27 07:51:03;;;;;;;0.60;0.40;;;8.60;93.30;;;;;;5110789;28;20205;-67
2021/03/27 07:53:53;;;;;;;0.77;0.68;;;8.60;93.80;;;;;;5110527;28;20295;-67
2021/03/27 07:56:39;;;;;;;1.80;0.63;;;8.70;93.20;;;;;;5100772;28;20198;-67
2021/03/27 07:59:38;;;;;;;0.40;0.40;;;8.80;93.10;;;;;;5096581;28;20600;-67
2021/03/27 08:02:36;;;;;;;0.80;0.50;;;9.00;92.40;;;;;;5096763;28;20293;-67
2021/03/27 08:05:32;;;;;;;0.88;0.60;;;9.00;91.80;;;;;;5080421;28;20320;-67
2021/03/27 08:08:18;;;;;;;0.85;0.70;;;9.10;92.50;;;;;;5096199;28;20208;-67
2021/03/27 08:11:12;;;;;;;0.80;0.80;;;9.20;91.50;;;;;;5096429;28;20204;-67
2021/03/27 08:14:13;;;;;;;1.02;0.60;;;9.30;91.70;;;;;;5096661;28;20234;-67
2021/03/27 08:17:12;;;;;;;2.05;0.70;;;9.40;91.80;;;;;;5096141;28;20290;-67
2021/03/27 08:20:02;;;;;;;1.70;0.60;;;9.50;92.00;;;;;;5096750;28;20288;-67
2021/03/27 08:23:02;;;;;;;0.63;0.57;;;9.50;91.50;;;;;;5096339;28;20216;-67
2021/03/27 08:25:36;;;;;;;0.57;0.57;;;9.70;91.50;;;;;;5096214;28;20222;-67
2021/03/27 08:28:25;;;;;;;0.82;0.70;;;9.50;90.60;;;;;;5096356;28;20282;-67
2021/03/27 08:31:13;;;;;;;1.20;0.50;;;9.40;90.70;;;;;;5096248;28;20202;-67
2021/03/27 08:34:19;;;;;;;0.80;0.55;;;9.50;91.40;;;;;;5096110;28;20210;-67
2021/03/27 08:37:02;;;;;;;0.50;0.50;;;9.60;90.50;;;;;;5095736;28;20191;-67
2021/03/27 08:40:04;;;;;;;2.55;1.50;;;9.70;87.40;;;;;;5095732;28;20202;-67
2021/03/27 08:43:07;;;;;;;0.60;0.55;;;9.70;86.70;;;;;;5095815;28;20258;-67
2021/03/27 08:46:10;;;;;;;4.22;0.60;;;9.70;81.30;;;;;;5095540;28;20310;-67
2021/03/27 08:49:04;;;;;;;0.50;0.40;;;9.80;79.60;;;;;;5096000;28;20216;-67
2021/03/27 08:51:35;;;;;;;0.40;0.40;;;9.90;78.50;;;;;;5095801;28;20513;-67
2021/03/27 08:54:30;;;;;;;0.98;0.50;;;10.10;75.40;;;;;;5095528;28;20305;-67
2021/03/27 08:57:28;;;;;;;0.65;0.50;;;10.20;74.20;;;;;;5095398;28;20273;-67
2021/03/27 09:00:37;;;;;;;0.90;0.60;;;10.40;70.10;;;;;;5095641;28;20609;-67
2021/03/27 09:03:35;;;;;;;0.57;0.57;;;10.30;69.10;;;;;;5059115;28;20245;-67
2021/03/27 09:06:29;;;;;;;0.93;0.60;;;10.20;68.00;;;;;;5095159;28;20265;-67
2021/03/27 09:09:12;;;;;;;2.58;0.60;;;10.50;67.80;;;;;;5094569;28;20209;-67
2021/03/27 09:12:03;;;;;;;1.20;0.60;;;10.60;68.70;;;;;;5095600;28;20671;-67
2021/03/27 09:14:56;;;;;;;1.05;0.32;;;10.40;68.80;;;;;;5095415;28;20222;-67
2021/03/27 09:17:52;;;;;;;0.88;0.65;;;10.30;68.10;;;;;;5095283;28;20567;-67
2021/03/27 09:20:48;;;;;;;0.52;0.50;;;10.40;67.30;;;;;;5095515;28;20240;-67
2021/03/27 09:23:33;;;;;;;0.60;0.40;;;10.50;66.70;;;;;;5095231;28;20240;-67
2021/03/27 09:26:40;;;;;;;0.82;0.55;;;10.60;66.20;;;;;;5095352;28;20575;-67
2021/03/27 09:29:57;;;;;;;1.58;0.70;;;10.60;65.30;;;;;;5095017;28;20255;-67
2021/03/27 09:32:58;;;;;;;0.50;0.50;;;10.70;65.90;;;;;;5095319;28;20326;-67
2021/03/27 09:35:43;;;;;;;1.10;0.68;;;11.10;66.40;;;;;;5032471;28;20220;-67
2021/03/27 09:38:27;;;;;;;0.50;0.50;;;11.30;64.60;;;;;;5090181;28;20285;-67
2021/03/27 09:41:22;;;;;;;1.08;0.98;;;11.20;64.00;;;;;;5094737;28;20186;-67
2021/03/27 09:44:19;;;;;;;0.50;0.50;;;11.20;64.50;;;;;;5072017;28;20679;-69
2021/03/27 09:47:02;;;;;;;0.80;0.55;;;11.30;64.80;;;;;;5094547;28;20563;-67
2021/03/27 09:49:33;;;;;;;0.60;0.55;;;11.70;63.80;;;;;;5095061;28;20256;-68
2021/03/27 09:52:21;;;;;;;1.25;0.80;;;12.30;64.60;;;;;;5094655;28;20292;-67
2021/03/27 09:54:52;;;;;;;0.50;0.50;;;13.30;61.50;;;;;;5094717;28;20222;-68
2021/03/27 09:57:27;;;;;;;0.60;0.55;;;14.70;54.50;;;;;;5094189;28;20295;-69
2021/03/27 10:00:11;;;;;;;1.73;1.23;;;15.90;50.90;;;;;;5086202;28;20208;-74
2021/03/27 10:02:39;;;;;;;1.58;1.05;;;16.40;49.10;;;;;;5079198;28;20297;-73
2021/03/27 10:05:31;;;;;;;0.50;0.47;;;16.70;46.80;;;;;;5072894;28;20258;-74
2021/03/27 10:08:10;;;;;;;2.05;0.40;;;16.90;47.00;;;;;;5072574;28;20199;-73
2021/03/27 10:11:04;;;;;;;0.93;0.60;;;16.60;44.80;;;;;;5073035;28;20206;-73
2021/03/27 10:14:01;;;;;;;0.40;0.40;;;16.30;44.40;;;;;;5072833;28;20244;-72
2021/03/27 10:16:37;;;;;;;0.60;0.40;;;16.20;43.90;;;;;;5072741;28;20228;-72
2021/03/27 10:19:25;;;;;;;1.70;0.47;;;16.20;44.70;;;;;;5072498;28;20752;-72
2021/03/27 10:22:19;;;;;;;0.50;0.47;;;16.80;42.80;;;;;;5072790;28;20208;-72
2021/03/27 10:24:51;;;;;;;0.40;0.38;;;16.90;43.10;;;;;;5072663;28;20309;-73
2021/03/27 10:27:22;;;;;;;5.80;0.70;;;17.40;41.00;;;;;;5072606;28;20202;-73
2021/03/27 10:30:01;;;;;;;1.48;0.40;;;17.50;39.80;;;;;;5072930;28;20230;-74
2021/03/27 10:33:08;;;;;;;1.05;0.93;;;17.90;39.60;;;;;;5072504;28;20656;-73
2021/03/27 10:36:09;;;;;;;3.28;0.80;;;18.50;39.30;;;;;;5010690;28;20250;-74
2021/03/27 10:39:08;;;;;;;2.47;1.50;;;19.10;39.10;;;;;;5010595;28;20300;-74
2021/03/27 10:41:56;;;;;;;0.40;0.40;;;18.80;37.50;;;;;;5036267;28;20479;-73
2021/03/27 10:44:32;;;;;;;0.65;0.30;;;17.80;38.30;;;;;;5072324;28;20230;-74
2021/03/27 10:47:03;;;;;;;0.55;0.50;;;17.80;40.00;;;;;;5072270;28;20206;-73
2021/03/27 10:49:39;;;;;;;0.50;0.50;;;18.10;39.80;;;;;;5072555;28;20214;-72
2021/03/27 10:52:42;;;;;;;3.15;0.90;;;18.70;39.50;;;;;;5072313;28;20205;-73
2021/03/27 10:55:26;;;;;;;0.50;0.50;;;18.70;39.20;;;;;;5072256;28;20229;-72
2021/03/27 10:58:30;;;;;;;1.13;0.60;;;19.00;38.30;;;;;;5072373;28;20206;-73
2021/03/27 11:01:07;;;;;;;1.50;0.68;;;18.20;38.10;;;;;;5084912;28;20917;-70
2021/03/27 11:04:07;;;;;;;1.10;0.85;;;17.30;38.60;;;;;;5093805;28;20208;-69
2021/03/27 11:07:01;;;;;;;0.45;0.45;;;16.40;40.30;;;;;;5067704;28;20198;-69
2021/03/27 11:10:02;;;;;;;0.60;0.50;;;16.50;40.90;;;;;;5093843;28;20206;-69
2021/03/27 11:13:13;;;;;;;0.90;0.70;;;16.30;40.30;;;;;;5093942;28;20209;-69
2021/03/27 11:16:11;;;;;;;1.05;0.60;;;15.40;41.10;;;;;;5087231;28;20615;-69
2021/03/27 11:19:07;;;;;;;2.10;0.57;;;15.10;42.70;;;;;;5059920;28;20530;-69
2021/03/27 11:22:08;;;;;;;0.65;0.50;;;15.70;41.80;;;;;;5093605;28;20208;-69
2021/03/27 11:24:55;;;;;;;0.95;0.60;;;15.30;41.40;;;;;;5093226;28;20226;-69
2021/03/27 11:27:40;;;;;;;0.73;0.45;;;14.90;43.80;;;;;;5093600;28;20273;-69
2021/03/27 11:30:18;;;;;;;0.70;0.70;;;14.70;42.90;;;;;;5093295;28;20202;-69
2021/03/27 11:32:51;;;;;;;0.63;0.60;;;13.80;43.90;;;;;;5097463;28;20208;-69
2021/03/27 11:35:23;;;;;;;2.00;0.60;;;13.30;46.00;;;;;;5097552;28;20694;-69
2021/03/27 11:38:04;;;;;;;0.50;0.50;;;13.50;45.20;;;;;;5097548;28;20216;-69
2021/03/27 11:40:40;;;;;;;0.70;0.55;;;13.10;46.00;;;;;;5097197;28;20233;-69
2021/03/27 11:43:25;;;;;;;0.95;0.68;;;12.80;47.00;;;;;;5097157;28;20284;-69
2021/03/27 11:45:59;;;;;;;1.25;0.70;;;13.20;47.70;;;;;;5096586;28;20320;-69
2021/03/27 11:48:34;;;;;;;1.60;0.60;;;13.40;47.30;;;;;;5096805;28;20293;-69
2021/03/27 11:51:09;;;;;;;0.80;0.73;;;13.50;46.00;;;;;;5096836;28;20731;-69
2021/03/27 11:54:03;;;;;;;0.93;0.50;;;13.00;47.20;;;;;;5096622;28;20252;-69
2021/03/27 11:56:51;;;;;;;1.10;0.65;;;13.20;47.30;;;;;;5096543;28;20187;-69
2021/03/27 12:02:36;;;;;;;1.05;0.52;;;13.70;47.90;;;;;;5096742;28;20209;-69
2021/03/27 12:05:12;;;;;;;0.80;0.60;;;13.80;46.00;;;;;;5096895;28;20688;-69
2021/03/27 12:07:45;;;;;;;0.70;0.50;;;13.20;45.90;;;;;;5097254;28;20292;-69
2021/03/27 12:10:31;;;;;;;0.93;0.70;;;13.10;46.70;;;;;;5096951;28;20676;-69
2021/03/27 12:13:03;;;;;;;1.52;0.75;;;12.80;46.90;;;;;;5097172;28;20296;-69
2021/03/27 12:15:37;;;;;;;0.80;0.68;;;12.30;47.80;;;;;;5096884;28;20309;-69
2021/03/27 12:18:12;;;;;;;0.90;0.73;;;12.10;48.70;;;;;;5097039;28;20207;-69
2021/03/27 12:20:45;;;;;;;0.85;0.50;;;12.10;48.80;;;;;;5097054;28;20205;-69
2021/03/27 12:23:21;;;;;;;1.45;1.30;;;12.20;49.80;;;;;;5096998;28;20210;-69
2021/03/27 12:26:13;;;;;;;0.65;0.65;;;12.30;49.50;;;;;;5096490;28;20224;-69
2021/03/27 12:28:47;;;;;;;0.80;0.68;;;12.40;50.00;;;;;;5096721;28;20204;-69
2021/03/27 12:31:39;;;;;;;1.00;0.90;;;12.40;49.10;;;;;;5096704;28;20266;-69
2021/03/27 12:34:15;;;;;;;0.90;0.90;;;12.50;49.30;;;;;;5095847;28;20221;-69
2021/03/27 12:36:54;;;;;;;2.50;1.40;;;12.50;49.10;;;;;;5095584;28;20216;-69
2021/03/27 12:39:36;;;;;;;1.27;0.70;;;12.40;48.80;;;;;;5096175;28;20231;-69
2021/03/27 12:42:09;;;;;;;0.68;0.68;;;12.30;48.80;;;;;;5096083;28;20236;-69
2021/03/27 12:44:40;;;;;;;0.73;0.73;;;12.30;48.60;;;;;;5095610;28;20715;-69
2021/03/27 12:47:40;;;;;;;0.88;0.70;;;12.70;49.80;;;;;;5095551;28;20280;-69
2021/03/27 12:50:28;;;;;;;1.45;0.85;;;13.00;49.60;;;;;;5096127;28;20213;-69
2021/03/27 12:53:20;;;;;;;1.20;1.08;;;13.00;47.90;;;;;;5088289;28;20233;-69
2021/03/27 12:56:01;;;;;;;0.80;0.70;;;12.90;48.50;;;;;;5096442;28;20641;-69
2021/03/27 12:58:40;;;;;;;0.80;0.80;;;12.70;48.00;;;;;;5096339;28;20198;-69
2021/03/27 13:01:32;;;;;;;2.58;0.90;;;12.70;48.60;;;;;;5096542;28;20301;-69
2021/03/27 13:04:44;;;;;;;0.80;0.50;;;12.70;48.80;;;;;;5096130;28;20229;-69
2021/03/27 13:07:20;;;;;;;1.00;0.70;;;12.70;47.80;;;;;;5059472;28;20217;-70
2021/03/27 13:09:57;;;;;;;1.65;0.70;;;12.60;47.30;;;;;;5096328;28;20315;-69
2021/03/27 13:12:32;;;;;;;0.70;0.70;;;12.60;47.20;;;;;;5096225;28;20620;-69
2021/03/27 13:15:28;;;;;;;0.77;0.60;;;12.70;48.20;;;;;;5096108;28;20302;-69
2021/03/27 13:18:27;;;;;;;0.75;0.50;;;13.00;47.40;;;;;;5094204;28;20206;-69
2021/03/27 13:21:05;;;;;;;1.13;0.70;;;13.00;46.50;;;;;;5095788;28;20286;-69
2021/03/27 13:23:36;;;;;;;1.67;0.52;;;13.00;46.70;;;;;;5095226;28;20296;-69
2021/03/27 13:26:10;;;;;;;2.55;0.90;;;13.00;46.60;;;;;;5094968;28;20229;-69
2021/03/27 13:28:39;;;;;;;0.88;0.60;;;13.00;45.80;;;;;;5095060;28;20225;-69
2021/03/27 13:31:11;;;;;;;1.02;0.77;;;13.00;46.50;;;;;;5094957;28;20206;-69
2021/03/27 13:33:46;;;;;;;1.30;0.57;;;13.00;46.00;;;;;;5095028;28;20388;-69
2021/03/27 13:36:40;;;;;;;0.70;0.70;;;12.80;46.50;;;;;;5094825;28;20282;-68
2021/03/27 13:39:28;;;;;;;1.15;0.88;;;12.70;47.30;;;;;;5094949;28;20588;-69
2021/03/27 13:42:40;;;;;;;1.25;0.63;;;12.70;47.40;;;;;;5095251;28;20202;-69
2021/03/27 13:45:24;;;;;;;1.92;0.80;;;13.00;48.80;;;;;;5095119;28;20229;-69
2021/03/27 13:48:02;;;;;;;1.58;0.65;;;13.20;47.00;;;;;;5095013;28;20656;-68
2021/03/27 13:50:39;;;;;;;0.77;0.77;;;13.10;45.80;;;;;;5094890;28;20576;-69
2021/03/27 13:53:27;;;;;;;1.40;0.90;;;13.10;46.40;;;;;;5094364;28;20296;-69
2021/03/27 13:56:05;;;;;;;2.35;0.70;;;13.00;46.70;;;;;;5084612;28;20233;-68
2021/03/27 13:58:38;;;;;;;1.60;1.00;;;12.90;47.00;;;;;;5094733;28;20255;-69
2021/03/27 14:01:14;;;;;;;1.58;0.95;;;13.10;48.20;;;;;;5095259;28;20210;-69
2021/03/27 14:03:48;;;;;;;1.30;0.80;;;13.20;47.60;;;;;;5094928;28;20198;-69
2021/03/27 14:06:24;;;;;;;0.80;0.80;;;13.40;47.60;;;;;;5094464;28;20743;-69
2021/03/27 14:09:24;;;;;;;0.70;0.65;;;13.20;47.20;;;;;;5094506;28;20222;-69
2021/03/27 14:11:55;;;;;;;1.55;0.80;;;12.90;47.10;;;;;;5094264;28;20285;-69
2021/03/27 14:14:25;;;;;;;1.15;0.80;;;12.70;48.00;;;;;;5094130;28;20218;-69
2021/03/27 14:17:07;;;;;;;1.05;0.90;;;12.70;48.20;;;;;;5093812;28;20790;-69